logo
Search for airport 
image banner adimage banner adimage banner ad
image banner ad

BIRK - Reykjavik

Located in Reykjavik, Iceland

ICAO - BIRK, IATA - RKV

Data provided by Airmate  

General information

Coordinates: N64°7'48" W21°56'26"
Elevation is 45 feet MSL.
 
View others Airports in Capital Region

Operational data

Special qualification required
Current time UTC:
Current local time:
Weather
METAR: BIRK 132000Z 27005KT 250V310 CAVOK 00/M08 Q1003
TAF: TAF BIRK 131959Z 1321/1421 12008KT 9999 FEW030 TX03/1415Z TNM01/1403Z BECMG 1402/1404 10018KT SCT015 BKN025 TEMPO 1405/1421 1000 SN OVC008 TEMPO 1406/1415 09020G32KT BECMG 1416/1418 09008KT
View NOTAMs / SUP AIP / TFR affecting this airport [VIEW]
Communications frequencies: [VIEW]

Runways:

RWY identifierQFULength (ft)Width (ft)SurfaceLDA (ft)
01355°5141148ASPH
19175°5141148ASPH
13116°4035148ASPH
31296°4035148ASPH

Airport contact information

Address: Reykjavik Iceland

Satellite view of BIRK